createdAt,value
2022-09-17T00:01:34.035Z,90.89
2022-09-17T00:06:58.353Z,90.79
2022-09-17T00:11:51.263Z,90.58
2022-09-17T00:16:51.213Z,91.09
2022-09-17T00:21:51.155Z,90.58
2022-09-17T00:26:51.120Z,91.50
2022-09-17T00:31:51.099Z,90.99
2022-09-17T00:36:50.943Z,92.38
2022-09-17T00:41:50.872Z,90.84
2022-09-17T00:46:50.918Z,90.44
2022-09-17T00:51:50.766Z,89.83
2022-09-17T00:56:50.682Z,90.39
2022-09-17T01:01:50.669Z,89.68
2022-09-17T01:06:50.565Z,89.68
2022-09-17T01:11:50.481Z,90.09
2022-09-17T01:16:50.458Z,89.47
2022-09-17T01:21:50.361Z,89.43
2022-09-17T01:26:50.278Z,90.05
2022-09-17T01:31:50.260Z,90.15
2022-09-17T01:36:50.145Z,90.25
2022-09-17T01:41:50.167Z,89.68
2022-09-17T01:46:50.057Z,89.47
2022-09-17T01:51:49.980Z,90.05
2022-09-17T01:56:49.868Z,90.15
2022-09-17T02:01:49.867Z,89.94
2022-09-17T02:06:49.783Z,90.36
2022-09-17T02:11:49.820Z,90.45
2022-09-17T02:16:49.617Z,91.38
2022-09-17T02:21:49.552Z,90.97
2022-09-17T02:26:49.504Z,91.38
2022-09-17T02:31:49.451Z,91.48
2022-09-17T02:36:49.365Z,91.89
2022-09-17T02:41:49.284Z,92.19
2022-09-17T02:46:49.267Z,92.81
2022-09-17T02:51:49.147Z,92.81
2022-09-17T02:56:49.084Z,94.75
2022-09-17T03:01:49.050Z,95.06
2022-09-17T03:06:48.960Z,96.29
2022-09-17T03:11:48.940Z,96.49
2022-09-17T03:16:48.951Z,97.11
2022-09-17T03:21:48.813Z,97.11
2022-09-17T03:26:48.666Z,97.21
2022-09-17T03:31:48.630Z,97.72
2022-09-17T03:36:48.563Z,96.80
2022-09-17T03:41:48.482Z,96.19
2022-09-17T03:46:48.515Z,96.80
2022-09-17T03:51:48.419Z,96.70
2022-09-17T03:56:48.301Z,96.29
2022-09-17T04:01:48.353Z,95.06
2022-09-17T04:06:48.173Z,95.57
2022-09-17T04:11:48.088Z,95.88
2022-09-17T04:17:07.624Z,95.21
2022-09-17T04:21:59.928Z,96.08
2022-09-17T04:26:59.881Z,95.57
2022-09-17T04:31:59.826Z,94.96
2022-09-17T04:36:59.743Z,95.47
2022-09-17T04:41:59.683Z,95.47
2022-09-17T04:46:59.709Z,95.67
2022-09-17T04:51:59.596Z,95.37
2022-09-17T04:56:59.484Z,95.67
2022-09-17T05:01:59.451Z,95.67
2022-09-17T05:06:59.347Z,96.19
2022-09-17T05:11:59.325Z,95.88
2022-09-17T05:16:59.232Z,95.26
2022-09-17T05:21:59.186Z,95.47
2022-09-17T05:26:59.047Z,95.47
2022-09-17T05:31:59.136Z,95.17
2022-09-17T05:36:58.976Z,94.65
2022-09-17T05:41:58.862Z,95.17
2022-09-17T05:46:58.931Z,95.02
2022-09-17T05:51:58.780Z,94.81
2022-09-17T05:56:58.650Z,94.51
2022-09-17T06:01:58.698Z,94.71
2022-09-17T06:06:58.553Z,94.10
2022-09-17T06:11:58.463Z,93.79
2022-09-17T06:16:58.415Z,94.10
2022-09-17T06:21:58.350Z,93.48
2022-09-17T06:26:58.275Z,93.99
2022-09-17T06:31:58.254Z,93.85
2022-09-17T06:36:58.146Z,92.21
2022-09-17T06:41:58.066Z,92.17
2022-09-17T06:46:58.042Z,91.72
2022-09-17T06:51:57.949Z,87.57
2022-09-17T06:56:57.901Z,84.09
2022-09-17T07:01:57.855Z,79.18
2022-09-17T07:06:57.772Z,79.16
2022-09-17T07:11:57.715Z,78.88
2022-09-17T07:16:57.644Z,78.13
2022-09-17T07:21:57.558Z,77.18
2022-09-17T07:26:57.581Z,76.71
2022-09-17T07:31:57.460Z,74.33
2022-09-17T07:36:57.357Z,70.96
2022-09-17T07:41:57.287Z,71.03
2022-09-17T07:46:57.276Z,70.76
2022-09-17T07:51:57.149Z,69.04
2022-09-17T07:56:57.062Z,61.60
2022-09-17T08:01:57.104Z,67.16
2022-09-17T08:06:56.965Z,70.15
2022-09-17T08:11:57.057Z,76.54
2022-09-17T08:16:56.823Z,79.53
2022-09-17T08:21:56.790Z,77.67
2022-09-17T08:26:56.703Z,76.51
2022-09-17T08:31:56.631Z,76.78
2022-09-17T08:36:56.537Z,75.36
2022-09-17T08:41:56.502Z,76.25
2022-09-17T08:46:56.490Z,78.48
2022-09-17T08:51:56.440Z,78.11
2022-09-17T08:56:56.292Z,76.51
2022-09-17T09:01:56.295Z,66.25
2022-09-17T09:06:56.163Z,63.87
2022-09-17T09:11:56.068Z,55.98
2022-09-17T09:16:56.040Z,62.90
2022-09-17T09:21:55.958Z,68.56
2022-09-17T09:26:58.613Z,70.86
2022-09-17T09:31:55.857Z,59.08
2022-09-17T09:36:55.808Z,55.13
2022-09-17T09:41:55.710Z,61.37
2022-09-17T09:46:55.748Z,63.29
2022-09-17T09:51:55.623Z,59.89
2022-09-17T09:56:55.527Z,47.81
2022-09-17T10:01:55.521Z,45.71
2022-09-17T10:06:55.355Z,44.99
2022-09-17T10:11:55.318Z,45.62
2022-09-17T10:16:55.204Z,46.07
2022-09-17T10:21:55.181Z,53.72
2022-09-17T10:26:55.083Z,58.25
2022-09-17T10:31:55.162Z,62.71
2022-09-17T10:36:54.982Z,56.72
2022-09-17T10:41:54.925Z,55.91
2022-09-17T10:46:54.981Z,50.82
2022-09-17T10:51:54.767Z,54.25
2022-09-17T10:56:54.768Z,51.26
2022-09-17T11:01:54.738Z,56.68
2022-09-17T11:06:54.568Z,70.08
2022-09-17T11:11:54.494Z,69.01
2022-09-17T11:16:54.430Z,58.15
2022-09-17T11:21:54.416Z,54.36
2022-09-17T11:26:54.339Z,54.30
2022-09-17T11:31:54.307Z,58.09
2022-09-17T11:36:54.185Z,62.74
2022-09-17T11:41:54.106Z,63.64
2022-09-17T11:46:54.056Z,74.92
2022-09-17T11:51:53.962Z,79.57
2022-09-17T11:56:53.913Z,75.01
2022-09-17T12:01:53.995Z,60.44
2022-09-17T12:06:53.816Z,56.28
2022-09-17T12:11:53.800Z,61.04
2022-09-17T12:16:53.644Z,58.51
2022-09-17T12:21:53.583Z,56.40
2022-09-17T12:26:53.528Z,52.42
2022-09-17T12:31:53.560Z,55.80
2022-09-17T12:36:53.371Z,56.05
2022-09-17T12:41:53.441Z,53.55
2022-09-17T12:46:53.313Z,52.89
2022-09-17T12:51:53.207Z,57.03
2022-09-17T12:56:53.135Z,61.36
2022-09-17T13:01:53.192Z,61.05
2022-09-17T13:06:52.978Z,64.07
2022-09-17T13:11:52.886Z,72.08
2022-09-17T13:16:53.017Z,76.10
2022-09-17T13:21:52.786Z,76.98
2022-09-17T13:26:52.701Z,73.83
2022-09-17T13:31:52.666Z,71.60
2022-09-17T13:36:52.693Z,74.71
2022-09-17T13:41:52.539Z,79.32
2022-09-17T13:46:52.497Z,77.49
2022-09-17T13:51:52.401Z,75.35
2022-09-17T13:56:52.283Z,72.31
2022-09-17T14:01:52.456Z,69.95
2022-09-17T14:06:52.191Z,69.04
2022-09-17T14:11:52.126Z,72.24
2022-09-17T14:16:52.046Z,71.88
2022-09-17T14:21:52.012Z,68.66
2022-09-17T14:26:52.953Z,69.27
2022-09-17T14:31:51.853Z,67.31
2022-09-17T14:36:51.799Z,69.74
2022-09-17T14:41:51.737Z,65.50
2022-09-17T14:46:51.689Z,71.50
2022-09-17T14:51:51.570Z,79.91
2022-09-17T14:56:51.541Z,80.64
2022-09-17T15:01:51.534Z,81.56
2022-09-17T15:06:51.357Z,82.87
2022-09-17T15:11:51.295Z,80.90
2022-09-17T15:16:51.274Z,79.80
2022-09-17T15:21:51.162Z,78.68
2022-09-17T15:26:51.091Z,78.14
2022-09-17T15:31:51.113Z,78.24
2022-09-17T15:36:50.982Z,78.24
2022-09-17T15:41:50.932Z,77.22
2022-09-17T15:46:50.902Z,77.33
2022-09-17T15:51:50.778Z,77.25
2022-09-17T15:56:50.688Z,74.55
2022-09-17T16:01:50.699Z,79.77
2022-09-17T16:06:50.640Z,82.99
2022-09-17T16:11:50.508Z,87.30
2022-09-17T16:16:50.461Z,85.66
2022-09-17T16:21:50.411Z,86.96
2022-09-17T16:26:50.428Z,89.04
2022-09-17T16:31:50.318Z,90.71
2022-09-17T16:36:50.366Z,92.35
2022-09-17T16:41:50.080Z,89.32
2022-09-17T16:46:50.115Z,90.19
2022-09-17T16:51:50.018Z,93.25
2022-09-17T16:56:49.935Z,91.25
2022-09-17T17:01:50.112Z,91.72
2022-09-17T17:06:49.799Z,88.85
2022-09-17T17:11:49.813Z,91.72
2022-09-17T17:16:49.642Z,91.31
2022-09-17T17:21:49.594Z,90.08
2022-09-17T17:26:49.519Z,91.00
2022-09-17T17:31:49.626Z,91.15
2022-09-17T17:36:49.403Z,93.40
2022-09-17T17:41:51.808Z,94.46
2022-09-17T17:46:49.364Z,94.81
2022-09-17T17:51:49.269Z,95.37
2022-09-17T17:56:49.121Z,94.96
2022-09-17T18:01:49.197Z,96.64
2022-09-17T18:06:49.018Z,96.54
2022-09-17T18:11:48.888Z,92.96
2022-09-17T18:16:48.885Z,95.37
2022-09-17T18:21:48.809Z,96.03
2022-09-17T18:26:48.721Z,96.13
2022-09-17T18:31:48.766Z,97.25
2022-09-17T18:36:51.193Z,96.74
2022-09-17T18:41:48.555Z,97.46
2022-09-17T18:46:48.492Z,97.97
2022-09-17T18:51:48.415Z,97.36
2022-09-17T18:56:48.298Z,97.56
2022-09-17T19:01:48.416Z,97.15
2022-09-17T19:06:48.196Z,97.46
2022-09-17T19:11:48.174Z,97.15
2022-09-17T19:16:48.096Z,97.81
2022-09-17T19:21:48.051Z,98.63
2022-09-17T19:26:50.952Z,99.25
2022-09-17T19:31:47.942Z,98.99
2022-09-17T19:36:47.924Z,99.51
2022-09-17T19:41:47.771Z,99.46
2022-09-17T19:46:47.850Z,99.56
2022-09-17T19:51:47.614Z,99.26
2022-09-17T19:56:47.645Z,98.44
2022-09-17T20:01:49.662Z,97.82
2022-09-17T20:06:47.415Z,98.74
2022-09-17T20:11:47.372Z,98.85
2022-09-17T20:16:47.253Z,99.15
2022-09-17T20:21:47.200Z,99.36
2022-09-17T20:26:47.107Z,99.05
2022-09-17T20:31:47.141Z,98.85
2022-09-17T20:36:47.054Z,98.85
2022-09-17T20:41:46.923Z,98.95
2022-09-17T20:46:46.934Z,99.36
2022-09-17T20:51:46.829Z,99.56
2022-09-17T20:56:46.708Z,99.15
2022-09-17T21:01:46.687Z,98.38
2022-09-17T21:06:46.621Z,99.26
2022-09-17T21:11:46.572Z,99.77
2022-09-17T21:16:46.568Z,99.98
2022-09-17T21:21:46.421Z,99.98
2022-09-17T21:26:46.361Z,99.26
2022-09-17T21:31:46.344Z,99.72
2022-09-17T21:36:46.221Z,99.72
2022-09-17T21:41:46.153Z,99.82
2022-09-17T21:46:46.114Z,99.62
2022-09-17T21:51:46.003Z,99.82
2022-09-17T21:56:45.971Z,99.82
2022-09-17T22:01:45.960Z,99.31
2022-09-17T22:06:45.821Z,99.21
2022-09-17T22:11:45.745Z,99.27
2022-09-17T22:16:45.695Z,99.27
2022-09-17T22:21:45.612Z,99.16
2022-09-17T22:26:45.537Z,96.14
2022-09-17T22:31:45.523Z,98.45
2022-09-17T22:36:45.423Z,98.14
2022-09-17T22:41:45.430Z,99.16
2022-09-17T22:46:45.293Z,98.90
2022-09-17T22:51:45.224Z,98.39
2022-09-17T22:56:45.126Z,99.68
2022-09-17T23:01:45.372Z,98.08
2022-09-17T23:06:45.007Z,98.39
2022-09-17T23:11:44.960Z,98.70
2022-09-17T23:16:44.890Z,97.57
2022-09-17T23:21:44.826Z,96.96
2022-09-17T23:26:44.748Z,96.04
2022-09-17T23:31:44.727Z,96.34
2022-09-17T23:36:44.638Z,97.78
2022-09-17T23:41:44.545Z,97.78
2022-09-17T23:46:44.572Z,97.78
2022-09-17T23:51:44.448Z,98.49
2022-09-17T23:56:44.399Z,99.11
